• Join FlightAware (Why Join?)
  • Login
  • US Flag 
03:48AM EDT


 

Airport Tracker/Info


-or-


 

Live Flight TrackerFlight Track Log ✈ N57658 ✈ 13-Nov-2013 ✈ KISO - KOGB

Flight Track Log - Related Links

Times and Time Zones

All times are in EST time to prevent confusion due to time zone crossing. See the N57658 flight status page for this flight to view local times or setup timezone preferences in your user account.

Time Position Orientation Groundspeed Altitude Reporting Facility
EST Latitude Longitude Course Direction KTS MPH feet Rate Location/Type
05:46PM 35.1964 -77.8211 230° Southwest 121 139 4,900  Level Washington Center
05:47PM 35.1728 -77.8561 230° Southwest 125 144 5,400 480 Climbing Washington Center
05:48PM 35.1514 -77.8858 229° Southwest 125 144 5,900 480 Climbing Washington Center
05:50PM 35.1127 -77.9589 237° Southwest  Level FlightAware Approximate
05:57PM 34.9593 -78.2482 239° Southwest  Level FlightAware Approximate
05:58PM 34.9383 -78.2902 239° Southwest  Level FlightAware Approximate
05:59PM 34.9173 -78.3321 239° Southwest  Level FlightAware Approximate
06:00PM 34.8960 -78.3737 235° Southwest  Level FlightAware Approximate
06:01PM 34.8729 -78.4140 235° Southwest  Level FlightAware Approximate
06:02PM 34.8498 -78.4542 235° Southwest  Level FlightAware Approximate
06:03PM 34.8267 -78.4944 235° Southwest  Level FlightAware Approximate
06:04PM 34.8035 -78.5346 235° Southwest  Level FlightAware Approximate
06:05PM 34.7804 -78.5747 235° Southwest  Level FlightAware Approximate
06:06PM 34.7573 -78.6148 235° Southwest  Level FlightAware Approximate
06:07PM 34.7341 -78.6549 235° Southwest  Level FlightAware Approximate
06:08PM 34.7109 -78.6950 235° Southwest  Level FlightAware Approximate
06:09PM 34.6877 -78.7351 235° Southwest  Level FlightAware Approximate
06:10PM 34.6645 -78.7751 235° Southwest  Level FlightAware Approximate
06:11PM 34.6413 -78.8151 235° Southwest  Level FlightAware Approximate
06:12PM 34.6181 -78.8551 235° Southwest  Level FlightAware Approximate
06:13PM 34.5948 -78.8951 235° Southwest  Level FlightAware Approximate
06:14PM 34.5716 -78.9350 235° Southwest  Level FlightAware Approximate
06:15PM 34.5483 -78.9750 235° Southwest  Level FlightAware Approximate
06:16PM 34.5250 -79.0149 235° Southwest  Level FlightAware Approximate
06:17PM 34.5017 -79.0547 235° Southwest  Level FlightAware Approximate
06:18PM 34.4784 -79.0946 235° Southwest  Level FlightAware Approximate
06:19PM 34.4551 -79.1345 235° Southwest  Level FlightAware Approximate
06:20PM 34.4318 -79.1743 235° Southwest  Level FlightAware Approximate
06:21PM 34.4086 -79.2142 236° Southwest  Level FlightAware Approximate
06:22PM 34.3859 -79.2545 236° Southwest  Level FlightAware Approximate
06:23PM 34.3631 -79.2947 236° Southwest  Level FlightAware Approximate
06:24PM 34.3403 -79.3350 236° Southwest  Level FlightAware Approximate
06:25PM 34.3175 -79.3752 236° Southwest  Level FlightAware Approximate
06:26PM 34.2946 -79.4154 235° Southwest  Level FlightAware Approximate
06:27PM 34.2718 -79.4555 235° Southwest  Level FlightAware Approximate
06:28PM 34.2490 -79.4957 235° Southwest  Level FlightAware Approximate
06:29PM 34.2261 -79.5358 235° Southwest  Level FlightAware Approximate
06:30PM 34.2032 -79.5759 235° Southwest  Level FlightAware Approximate
06:31PM 34.1803 -79.6159 235° Southwest  Level FlightAware Approximate
06:32PM 34.1574 -79.6560 235° Southwest  Level FlightAware Approximate
06:33PM 34.1345 -79.6960 235° Southwest  Level FlightAware Approximate
06:34PM 34.1116 -79.7360 235° Southwest  Level FlightAware Approximate
06:35PM 34.0886 -79.7760 235° Southwest  Level FlightAware Approximate
06:36PM 34.0657 -79.8159 235° Southwest  Level FlightAware Approximate
06:37PM 34.0427 -79.8559 235° Southwest  Level FlightAware Approximate
06:38PM 34.0197 -79.8958 235° Southwest  Level FlightAware Approximate
06:39PM 33.9967 -79.9357 235° Southwest  Level FlightAware Approximate
06:40PM 33.9737 -79.9756 235° Southwest  Level FlightAware Approximate
06:41PM 33.9507 -80.0154 235° Southwest  Level FlightAware Approximate
06:42PM 33.9269 -80.0546 234° Southwest  Level FlightAware Approximate
06:43PM 33.9031 -80.0937 234° Southwest  Level FlightAware Approximate
06:44PM 33.8792 -80.1328 234° Southwest  Level FlightAware Approximate
06:45PM 33.8553 -80.1719 234° Southwest  Level FlightAware Approximate
06:46PM 33.8315 -80.2110 234° Southwest  Level FlightAware Approximate
06:47PM 33.8076 -80.2500 234° Southwest  Level FlightAware Approximate
06:48PM 33.7836 -80.2890 234° Southwest  Level FlightAware Approximate
06:49PM 33.7597 -80.3280 234° Southwest  Level FlightAware Approximate
06:50PM 33.7358 -80.3670 234° Southwest  Level FlightAware Approximate
06:51PM 33.7119 -80.4059 234° Southwest  Level FlightAware Approximate
06:52PM 33.6879 -80.4448 234° Southwest  Level FlightAware Approximate
06:53PM 33.6639 -80.4837 233° Southwest  Level FlightAware Approximate
06:54PM 33.6399 -80.5226 233° Southwest  Level FlightAware Approximate
06:55PM 33.6183 -80.5634 239° Southwest  Level FlightAware Approximate
06:56PM 33.5976 -80.6048 239° Southwest  Level FlightAware Approximate
06:57PM 33.5769 -80.6463 239° Southwest  Level FlightAware Approximate
06:58PM 33.5530 -80.6849 228° Southwest  Level FlightAware Approximate
06:59PM 33.5260 -80.7209 228° Southwest  Level FlightAware Approximate
07:00PM 33.5069 -80.7626 248° West  Level FlightAware Approximate
07:01PM 33.4855 -80.8027 228° Southwest  Level FlightAware Approximate
07:02PM 33.4586 -80.8386 228° Southwest  Level FlightAware Approximate
07:03PM 33.4500 -80.8500 228° Southwest  Level FlightAware Approximate
07:04PM 33.4569 -80.8594 228° Southwest  Level Estimated
07:05PM 33.4569 -80.8594 228° Southwest  Level Estimated
07:06PM 33.4569 -80.8594 228° Southwest  Level Estimated
07:07PM 33.4569 -80.8594 228° Southwest  Level Estimated
07:08PM 33.4569 -80.8594 228° Southwest  Level Estimated
07:09PM 33.4569 -80.8594 228° Southwest  Level Estimated
07:10PM 33.4569 -80.8594 228° Southwest  Level Estimated
07:11PM 33.4569 -80.8594 228° Southwest  Level Estimated